Time,TemperatureF,DewpointF,PressureIn,WindDirection,WindDirectionDegrees,WindSpeedMPH,WindSpeedGustMPH,Humidity,HourlyPrecipIn,Conditions,Clouds,dailyrainin,SoftwareType,DateUTC
2013-02-25 00:00:00,31.3,27.3,29.47,North,0,0.0,0.0,85,0.00,,---,0.00,VWS V14.00,2013-02-25 05:00:00,
2013-02-25 00:01:00,31.1,27.1,29.47,North,0,0.0,0.0,85,0.00,,---,0.00,VWS V14.00,2013-02-25 05:01:00,
2013-02-25 00:03:00,31.1,27.1,29.47,North,0,0.0,0.0,85,0.00,,---,0.00,VWS V14.00,2013-02-25 05:03:00,
2013-02-25 00:09:00,31.1,27.1,29.47,North,0,0.0,0.0,85,0.00,,---,0.00,VWS V14.00,2013-02-25 05:09:00,
2013-02-25 00:14:00,31.1,27.1,29.47,North,0,0.0,0.0,85,0.00,,---,0.00,VWS V14.00,2013-02-25 05:14:00,
2013-02-25 00:20:00,30.9,27.0,29.47,North,0,0.0,0.0,85,0.00,,---,0.00,VWS V14.00,2013-02-25 05:20:00,
2013-02-25 00:25:00,30.9,27.0,29.47,North,0,0.0,0.0,85,0.00,,---,0.00,VWS V14.00,2013-02-25 05:25:00,
2013-02-25 00:30:00,30.9,27.0,29.47,North,0,0.0,0.0,85,0.00,,---,0.00,VWS V14.00,2013-02-25 05:30:00,
2013-02-25 00:36:00,31.1,27.1,29.47,North,0,0.0,0.0,85,0.00,,---,0.00,VWS V14.00,2013-02-25 05:36:00,
2013-02-25 00:41:00,31.1,27.1,29.47,North,0,0.0,0.0,85,0.00,,---,0.00,VWS V14.00,2013-02-25 05:41:00,
2013-02-25 00:47:00,30.9,27.0,29.50,North,0,0.0,0.0,85,0.00,,---,0.00,VWS V14.00,2013-02-25 05:47:00,
2013-02-25 00:52:00,30.9,27.0,29.50,North,0,0.0,0.0,85,0.00,,---,0.00,VWS V14.00,2013-02-25 05:52:00,
2013-02-25 00:57:00,30.9,27.0,29.50,North,0,0.0,0.0,85,0.00,,---,0.00,VWS V14.00,2013-02-25 05:57:00,
2013-02-25 01:02:00,30.9,27.0,29.50,North,0,0.0,0.0,85,0.00,,---,0.00,VWS V14.00,2013-02-25 06:02:00,
2013-02-25 01:07:00,30.9,27.0,29.50,North,0,0.0,0.0,85,0.00,,---,0.00,VWS V14.00,2013-02-25 06:07:00,
2013-02-25 01:12:00,30.7,26.5,29.50,North,0,0.0,0.0,84,0.00,,---,0.00,VWS V14.00,2013-02-25 06:12:00,
2013-02-25 01:18:00,30.7,26.5,29.50,North,0,0.0,0.0,84,0.00,,---,0.00,VWS V14.00,2013-02-25 06:18:00,
2013-02-25 01:23:00,30.6,26.3,29.50,North,0,0.0,0.0,84,0.00,,---,0.00,VWS V14.00,2013-02-25 06:23:00,
2013-02-25 01:29:00,30.4,26.1,29.50,North,0,0.0,0.0,84,0.00,,---,0.00,VWS V14.00,2013-02-25 06:29:00,
2013-02-25 01:34:00,30.2,26.2,29.50,North,0,0.0,0.0,85,0.00,,---,0.00,VWS V14.00,2013-02-25 06:34:00,
2013-02-25 01:40:00,30.2,26.0,29.50,North,0,0.0,0.0,84,0.00,,---,0.00,VWS V14.00,2013-02-25 06:40:00,
2013-02-25 01:45:00,30.2,26.0,29.50,North,0,0.0,0.0,84,0.00,,---,0.00,VWS V14.00,2013-02-25 06:45:00,
2013-02-25 01:50:00,30.2,26.2,29.50,North,0,0.0,0.0,85,0.00,,---,0.00,VWS V14.00,2013-02-25 06:50:00,
2013-02-25 01:55:00,30.2,26.2,29.50,North,0,0.0,0.0,85,0.00,,---,0.00,VWS V14.00,2013-02-25 06:55:00,
2013-02-25 02:01:00,30.4,26.1,29.50,North,0,0.0,0.0,84,0.00,,---,0.00,VWS V14.00,2013-02-25 07:01:00,
2013-02-25 02:06:00,30.4,26.1,29.50,North,0,0.0,0.0,84,0.00,,---,0.00,VWS V14.00,2013-02-25 07:06:00,
2013-02-25 02:11:00,30.6,26.3,29.50,North,0,0.0,0.0,84,0.00,,---,0.00,VWS V14.00,2013-02-25 07:11:00,
2013-02-25 02:16:00,30.6,26.3,29.50,North,0,0.0,0.0,84,0.00,,---,0.00,VWS V14.00,2013-02-25 07:16:00,
2013-02-25 02:22:00,30.7,26.5,29.50,North,0,0.0,0.0,84,0.00,,---,0.00,VWS V14.00,2013-02-25 07:22:00,
2013-02-25 02:27:00,30.7,26.5,29.50,North,0,0.0,0.0,84,0.00,,---,0.00,VWS V14.00,2013-02-25 07:27:00,
2013-02-25 02:32:00,30.7,26.5,29.50,North,0,0.0,0.0,84,0.00,,---,0.00,VWS V14.00,2013-02-25 07:32:00,
2013-02-25 02:38:00,30.9,26.7,29.50,North,0,0.0,0.0,84,0.00,,---,0.00,VWS V14.00,2013-02-25 07:38:00,
2013-02-25 02:43:00,30.9,26.7,29.50,North,0,0.0,0.0,84,0.00,,---,0.00,VWS V14.00,2013-02-25 07:43:00,
2013-02-25 02:49:00,30.9,26.7,29.53,North,0,0.0,0.0,84,0.00,,---,0.00,VWS V14.00,2013-02-25 07:49:00,
2013-02-25 02:54:00,31.1,26.8,29.53,North,0,0.0,0.0,84,0.00,,---,0.00,VWS V14.00,2013-02-25 07:54:00,
2013-02-25 02:59:00,31.1,26.8,29.53,North,0,0.0,0.0,84,0.00,,---,0.00,VWS V14.00,2013-02-25 07:59:00,
2013-02-25 03:04:00,31.1,26.8,29.53,North,0,0.0,0.0,84,0.00,,---,0.00,VWS V14.00,2013-02-25 08:04:00,
2013-02-25 03:09:00,31.1,26.8,29.53,North,0,0.0,0.0,84,0.00,,---,0.00,VWS V14.00,2013-02-25 08:09:00,
2013-02-25 03:15:00,31.1,26.8,29.53,North,0,0.0,0.0,84,0.00,,---,0.00,VWS V14.00,2013-02-25 08:15:00,
2013-02-25 03:20:00,31.1,26.8,29.53,North,0,0.0,0.0,84,0.00,,---,0.00,VWS V14.00,2013-02-25 08:20:00,
2013-02-25 03:25:00,31.1,26.8,29.53,North,0,0.0,0.0,84,0.00,,---,0.00,VWS V14.00,2013-02-25 08:25:00,
2013-02-25 03:30:00,30.9,26.7,29.53,North,0,0.0,0.0,84,0.00,,---,0.00,VWS V14.00,2013-02-25 08:30:00,
2013-02-25 03:36:00,30.9,26.7,29.53,North,0,0.0,0.0,84,0.00,,---,0.00,VWS V14.00,2013-02-25 08:36:00,
2013-02-25 03:41:00,30.9,26.7,29.53,North,0,0.0,0.0,84,0.00,,---,0.00,VWS V14.00,2013-02-25 08:41:00,
2013-02-25 03:46:00,30.7,26.5,29.53,North,0,0.0,0.0,84,0.00,,---,0.00,VWS V14.00,2013-02-25 08:46:00,
2013-02-25 03:51:00,30.7,26.5,29.53,North,0,0.0,0.0,84,0.00,,---,0.00,VWS V14.00,2013-02-25 08:51:00,
2013-02-25 03:57:00,30.7,26.5,29.53,North,0,0.0,0.0,84,0.00,,---,0.00,VWS V14.00,2013-02-25 08:57:00,
2013-02-25 04:02:00,30.7,26.5,29.53,North,0,0.0,0.0,84,0.00,,---,0.00,VWS V14.00,2013-02-25 09:02:00,
2013-02-25 04:07:00,30.7,26.5,29.53,North,0,0.0,0.0,84,0.00,,---,0.00,VWS V14.00,2013-02-25 09:07:00,
2013-02-25 04:13:00,30.6,26.3,29.53,North,0,0.0,0.0,84,0.00,,---,0.00,VWS V14.00,2013-02-25 09:13:00,
2013-02-25 04:18:00,30.6,26.3,29.53,North,0,0.0,0.0,84,0.00,,---,0.00,VWS V14.00,2013-02-25 09:18:00,
2013-02-25 04:24:00,30.6,26.3,29.53,North,0,0.0,0.0,84,0.00,,---,0.00,VWS V14.00,2013-02-25 09:24:00,
2013-02-25 04:29:00,30.7,26.5,29.53,North,0,0.0,0.0,84,0.00,,---,0.00,VWS V14.00,2013-02-25 09:29:00,
2013-02-25 04:34:00,30.7,26.5,29.56,North,0,0.0,0.0,84,0.00,,---,0.00,VWS V14.00,2013-02-25 09:34:00,
2013-02-25 04:39:00,30.7,26.5,29.56,North,0,0.0,0.0,84,0.00,,---,0.00,VWS V14.00,2013-02-25 09:39:00,
2013-02-25 04:44:00,30.7,26.5,29.56,North,0,0.0,0.0,84,0.00,,---,0.00,VWS V14.00,2013-02-25 09:44:00,
2013-02-25 04:50:00,30.7,26.5,29.56,North,0,0.0,0.0,84,0.00,,---,0.00,VWS V14.00,2013-02-25 09:50:00,
2013-02-25 04:55:00,30.7,26.5,29.56,North,0,0.0,0.0,84,0.00,,---,0.00,VWS V14.00,2013-02-25 09:55:00,
2013-02-25 05:00:00,30.7,26.5,29.56,North,0,0.0,0.0,84,0.00,,---,0.00,VWS V14.00,2013-02-25 10:00:00,
2013-02-25 05:05:00,30.6,26.3,29.56,North,0,0.0,0.0,84,0.00,,---,0.00,VWS V14.00,2013-02-25 10:05:00,
2013-02-25 05:11:00,30.6,26.3,29.56,North,0,0.0,0.0,84,0.00,,---,0.00,VWS V14.00,2013-02-25 10:11:00,
2013-02-25 05:16:00,30.4,26.1,29.56,North,0,0.0,0.0,84,0.00,,---,0.00,VWS V14.00,2013-02-25 10:16:00,
2013-02-25 05:21:00,30.4,26.1,29.56,North,0,0.0,0.0,84,0.00,,---,0.00,VWS V14.00,2013-02-25 10:21:00,
2013-02-25 05:26:00,30.2,26.2,29.56,North,0,0.0,0.0,85,0.00,,---,0.00,VWS V14.00,2013-02-25 10:26:00,
2013-02-25 05:32:00,30.2,26.2,29.59,North,0,0.0,0.0,85,0.00,,---,0.00,VWS V14.00,2013-02-25 10:32:00,
2013-02-25 05:37:00,30.2,26.2,29.59,North,0,0.0,0.0,85,0.00,,---,0.00,VWS V14.00,2013-02-25 10:37:00,
2013-02-25 05:42:00,30.2,26.2,29.59,North,0,0.0,0.0,85,0.00,,---,0.00,VWS V14.00,2013-02-25 10:42:00,
2013-02-25 05:48:00,30.0,26.1,29.59,North,0,0.0,0.0,85,0.00,,---,0.00,VWS V14.00,2013-02-25 10:48:00,
2013-02-25 05:54:00,29.8,25.6,29.59,North,0,0.0,0.0,84,0.00,,---,0.00,VWS V14.00,2013-02-25 10:54:00,
2013-02-25 05:59:00,29.7,25.4,29.59,North,0,0.0,0.0,84,0.00,,---,0.00,VWS V14.00,2013-02-25 10:59:00,
2013-02-25 06:04:00,29.3,25.1,29.59,North,0,0.0,0.0,84,0.00,,---,0.00,VWS V14.00,2013-02-25 11:04:00,
2013-02-25 06:09:00,28.9,24.7,29.59,North,0,0.0,0.0,84,0.00,,---,0.00,VWS V14.00,2013-02-25 11:09:00,
2013-02-25 06:14:00,28.6,24.4,29.59,North,0,0.0,0.0,84,0.00,,---,0.00,VWS V14.00,2013-02-25 11:14:00,
2013-02-25 06:19:00,28.2,24.0,29.59,North,0,0.0,0.0,84,0.00,,---,0.00,VWS V14.00,2013-02-25 11:19:00,
2013-02-25 06:25:00,27.9,23.7,29.59,North,0,0.0,0.0,84,0.00,,---,0.00,VWS V14.00,2013-02-25 11:25:00,
2013-02-25 06:30:00,27.5,23.0,29.59,North,0,0.0,0.0,83,0.00,,---,0.00,VWS V14.00,2013-02-25 11:30:00,
2013-02-25 06:35:00,27.3,22.9,29.59,North,0,0.0,0.0,83,0.00,,---,0.00,VWS V14.00,2013-02-25 11:35:00,
2013-02-25 06:40:00,27.3,23.1,29.59,North,0,0.0,0.0,84,0.00,,---,0.00,VWS V14.00,2013-02-25 11:40:00,
2013-02-25 06:46:00,27.5,23.3,29.59,North,0,0.0,0.0,84,0.00,,---,0.00,VWS V14.00,2013-02-25 11:46:00,
2013-02-25 06:51:00,27.7,23.5,29.59,North,0,0.0,0.0,84,0.00,,---,0.00,VWS V14.00,2013-02-25 11:51:00,
2013-02-25 06:56:00,27.9,23.7,29.59,North,0,0.0,0.0,84,0.00,,---,0.00,VWS V14.00,2013-02-25 11:56:00,
2013-02-25 07:01:00,28.2,24.0,29.62,North,0,0.0,0.0,84,0.00,,---,0.00,VWS V14.00,2013-02-25 12:01:00,
2013-02-25 07:07:00,28.6,24.4,29.62,North,0,0.0,0.0,84,0.00,,---,0.00,VWS V14.00,2013-02-25 12:07:00,
2013-02-25 07:12:00,28.9,24.7,29.62,North,0,0.0,0.0,84,0.00,,---,0.00,VWS V14.00,2013-02-25 12:12:00,
2013-02-25 07:18:00,29.5,25.2,29.62,North,0,0.0,0.0,84,0.00,,---,0.00,VWS V14.00,2013-02-25 12:18:00,
2013-02-25 07:23:00,30.0,26.1,29.62,North,0,0.0,0.0,85,0.00,,---,0.00,VWS V14.00,2013-02-25 12:23:00,
2013-02-25 07:29:00,30.6,26.3,29.62,North,0,0.0,0.0,84,0.00,,---,0.00,VWS V14.00,2013-02-25 12:29:00,
2013-02-25 07:34:00,30.9,26.7,29.62,North,0,0.0,0.0,84,0.00,,---,0.00,VWS V14.00,2013-02-25 12:34:00,
2013-02-25 07:39:00,31.3,27.0,29.62,North,0,0.0,0.0,84,0.00,,---,0.00,VWS V14.00,2013-02-25 12:39:00,
2013-02-25 07:44:00,32.0,28.0,29.62,North,0,0.0,0.0,85,0.00,,---,0.00,VWS V14.00,2013-02-25 12:44:00,
2013-02-25 07:49:00,32.4,28.4,29.62,North,0,0.0,0.0,85,0.00,,---,0.00,VWS V14.00,2013-02-25 12:49:00,
2013-02-25 07:55:00,32.7,28.7,29.62,North,0,0.0,0.0,85,0.00,,---,0.00,VWS V14.00,2013-02-25 12:55:00,
2013-02-25 08:00:00,33.1,29.1,29.62,North,0,0.0,0.0,85,0.00,,---,0.00,VWS V14.00,2013-02-25 13:00:00,
2013-02-25 08:05:00,33.6,29.6,29.62,North,0,0.0,0.0,85,0.00,,---,0.00,VWS V14.00,2013-02-25 13:05:00,
2013-02-25 08:11:00,33.8,29.5,29.62,North,0,0.0,0.0,84,0.00,,---,0.00,VWS V14.00,2013-02-25 13:11:00,
2013-02-25 08:16:00,34.2,29.8,29.62,North,0,0.0,0.0,84,0.00,,---,0.00,VWS V14.00,2013-02-25 13:16:00,
2013-02-25 08:21:00,34.7,30.4,29.62,North,0,0.0,0.0,84,0.00,,---,0.00,VWS V14.00,2013-02-25 13:21:00,
2013-02-25 08:27:00,35.1,31.0,29.62,North,0,0.0,0.0,85,0.00,,---,0.00,VWS V14.00,2013-02-25 13:27:00,
2013-02-25 08:32:00,35.1,30.7,29.65,North,0,0.0,0.0,84,0.00,,---,0.00,VWS V14.00,2013-02-25 13:32:00,
2013-02-25 08:38:00,35.4,30.8,29.65,North,0,0.0,0.0,83,0.00,,---,0.00,VWS V14.00,2013-02-25 13:38:00,
2013-02-25 08:43:00,35.4,30.8,29.65,North,0,0.0,0.0,83,0.00,,---,0.00,VWS V14.00,2013-02-25 13:43:00,
2013-02-25 08:48:00,35.8,30.8,29.65,North,0,0.0,0.0,82,0.00,,---,0.00,VWS V14.00,2013-02-25 13:48:00,
2013-02-25 08:53:00,36.1,30.9,29.65,North,0,0.0,0.0,81,0.00,,---,0.00,VWS V14.00,2013-02-25 13:53:00,
2013-02-25 08:58:00,36.3,30.4,29.65,North,0,0.0,0.0,79,0.00,,---,0.00,VWS V14.00,2013-02-25 13:58:00,
2013-02-25 09:04:00,36.7,30.5,29.65,North,0,0.0,0.0,78,0.00,,---,0.00,VWS V14.00,2013-02-25 14:04:00,
2013-02-25 09:09:00,37.0,29.9,29.65,North,0,0.0,0.0,75,0.00,,---,0.00,VWS V14.00,2013-02-25 14:09:00,
2013-02-25 09:17:00,38.1,29.2,29.65,North,0,0.0,0.0,70,0.00,,---,0.00,VWS V14.00,2013-02-25 14:17:00,
2013-02-25 09:23:00,39.2,29.2,29.65,North,0,0.0,0.0,67,0.00,,---,0.00,VWS V14.00,2013-02-25 14:23:00,
2013-02-25 09:28:00,39.4,24.6,29.65,North,0,0.0,0.0,55,0.00,,---,0.00,VWS V14.00,2013-02-25 14:28:00,
2013-02-25 09:33:00,39.2,24.8,29.65,North,0,0.0,0.0,56,0.00,,---,0.00,VWS V14.00,2013-02-25 14:33:00,
2013-02-25 09:38:00,40.3,26.3,29.65,North,0,0.0,0.0,57,0.00,,---,0.00,VWS V14.00,2013-02-25 14:38:00,
2013-02-25 09:43:00,42.3,25.4,29.65,North,0,0.0,0.0,51,0.00,,---,0.00,VWS V14.00,2013-02-25 14:43:00,
2013-02-25 09:48:00,43.0,26.1,29.65,North,0,0.0,0.0,51,0.00,,---,0.00,VWS V14.00,2013-02-25 14:48:00,
2013-02-25 09:54:00,44.6,26.1,29.65,North,0,0.0,0.0,48,0.00,,---,0.00,VWS V14.00,2013-02-25 14:54:00,
2013-02-25 09:59:00,45.9,27.8,29.65,North,0,0.0,0.0,49,0.00,,---,0.00,VWS V14.00,2013-02-25 14:59:00,
2013-02-25 10:04:00,44.1,24.6,29.68,North,0,0.0,0.0,46,0.00,,---,0.00,VWS V14.00,2013-02-25 15:04:00,
2013-02-25 10:09:00,42.1,21.8,29.68,North,0,0.0,0.0,44,0.00,,---,0.00,VWS V14.00,2013-02-25 15:09:00,
2013-02-25 10:15:00,41.2,22.0,29.68,North,0,0.0,0.0,46,0.00,,---,0.00,VWS V14.00,2013-02-25 15:15:00,
2013-02-25 10:20:00,42.1,23.8,29.68,North,0,0.0,0.0,48,0.00,,---,0.00,VWS V14.00,2013-02-25 15:20:00,
2013-02-25 10:25:00,42.1,22.8,29.68,North,0,0.0,0.0,46,0.00,,---,0.00,VWS V14.00,2013-02-25 15:25:00,
2013-02-25 10:30:00,42.3,23.5,29.68,North,0,0.0,0.0,47,0.00,,---,0.00,VWS V14.00,2013-02-25 15:30:00,
2013-02-25 10:36:00,41.4,22.1,29.68,North,0,0.0,0.0,46,0.00,,---,0.00,VWS V14.00,2013-02-25 15:36:00,
2013-02-25 10:41:00,41.9,23.7,29.68,North,0,0.0,0.0,48,0.00,,---,0.00,VWS V14.00,2013-02-25 15:41:00,
2013-02-25 10:46:00,41.7,22.5,29.68,North,0,0.0,0.0,46,0.00,,---,0.00,VWS V14.00,2013-02-25 15:46:00,
2013-02-25 10:52:00,41.7,23.0,29.68,North,0,0.0,0.0,47,0.00,,---,0.00,VWS V14.00,2013-02-25 15:52:00,
2013-02-25 10:58:00,42.4,24.1,29.68,North,0,0.0,0.0,48,0.00,,---,0.00,VWS V14.00,2013-02-25 15:58:00,
2013-02-25 11:03:00,41.0,21.3,29.68,North,0,0.0,0.0,45,0.00,,---,0.00,VWS V14.00,2013-02-25 16:03:00,
2013-02-25 11:08:00,41.2,22.5,29.68,North,0,0.0,0.0,47,0.00,,---,0.00,VWS V14.00,2013-02-25 16:08:00,
2013-02-25 11:13:00,40.8,22.2,29.68,North,0,0.0,0.0,47,0.00,,---,0.00,VWS V14.00,2013-02-25 16:13:00,
2013-02-25 11:18:00,40.8,23.1,29.68,North,0,0.0,0.0,49,0.00,,---,0.00,VWS V14.00,2013-02-25 16:18:00,
2013-02-25 11:23:00,41.5,23.3,29.68,North,0,0.0,0.0,48,0.00,,---,0.00,VWS V14.00,2013-02-25 16:23:00,
2013-02-25 11:29:00,41.9,22.6,29.68,North,0,0.0,0.0,46,0.00,,---,0.00,VWS V14.00,2013-02-25 16:29:00,
2013-02-25 11:34:00,42.1,22.3,29.68,North,0,0.0,0.0,45,0.00,,---,0.00,VWS V14.00,2013-02-25 16:34:00,
2013-02-25 11:39:00,42.1,22.3,29.68,North,0,0.0,0.0,45,0.00,,---,0.00,VWS V14.00,2013-02-25 16:39:00,
2013-02-25 11:45:00,41.9,22.1,29.68,North,0,0.0,0.0,45,0.00,,---,0.00,VWS V14.00,2013-02-25 16:45:00,
2013-02-25 11:50:00,41.7,21.4,29.68,North,0,0.0,0.0,44,0.00,,---,0.00,VWS V14.00,2013-02-25 16:50:00,
2013-02-25 11:55:00,41.5,21.8,29.68,North,0,0.0,0.0,45,0.00,,---,0.00,VWS V14.00,2013-02-25 16:55:00,
2013-02-25 12:00:00,41.4,21.1,29.68,North,0,0.0,0.0,44,0.00,,---,0.00,VWS V14.00,2013-02-25 17:00:00,
2013-02-25 12:05:00,41.4,21.1,29.68,North,0,0.0,0.0,44,0.00,,---,0.00,VWS V14.00,2013-02-25 17:05:00,
2013-02-25 12:11:00,41.7,22.0,29.68,North,0,0.0,0.0,45,0.00,,---,0.00,VWS V14.00,2013-02-25 17:11:00,
2013-02-25 12:16:00,41.9,21.6,29.68,North,0,0.0,0.0,44,0.00,,---,0.00,VWS V14.00,2013-02-25 17:16:00,
2013-02-25 12:22:00,42.1,21.8,29.68,North,0,0.0,0.0,44,0.00,,---,0.00,VWS V14.00,2013-02-25 17:22:00,
2013-02-25 12:27:00,41.7,20.9,29.68,North,0,0.0,0.0,43,0.00,,---,0.00,VWS V14.00,2013-02-25 17:27:00,
2013-02-25 12:33:00,42.1,20.7,29.68,North,0,0.0,0.0,42,0.00,,---,0.00,VWS V14.00,2013-02-25 17:33:00,
2013-02-25 12:38:00,42.4,21.5,29.68,North,0,0.0,0.0,43,0.00,,---,0.00,VWS V14.00,2013-02-25 17:38:00,
2013-02-25 12:43:00,42.3,21.4,29.68,North,0,0.0,0.0,43,0.00,,---,0.00,VWS V14.00,2013-02-25 17:43:00,
2013-02-25 12:48:00,42.3,20.8,29.68,North,0,0.0,0.0,42,0.00,,---,0.00,VWS V14.00,2013-02-25 17:48:00,
2013-02-25 12:53:00,42.6,21.1,29.68,North,0,0.0,0.0,42,0.00,,---,0.00,VWS V14.00,2013-02-25 17:53:00,
2013-02-25 12:59:00,42.3,20.3,29.68,North,0,0.0,0.0,41,0.00,,---,0.00,VWS V14.00,2013-02-25 17:59:00,
2013-02-25 13:04:00,42.1,20.1,29.71,North,0,0.0,0.0,41,0.00,,---,0.00,VWS V14.00,2013-02-25 18:04:00,
2013-02-25 13:09:00,41.7,19.8,29.71,North,0,0.0,0.0,41,0.00,,---,0.00,VWS V14.00,2013-02-25 18:09:00,
2013-02-25 13:14:00,41.9,20.5,29.71,North,0,0.0,0.0,42,0.00,,---,0.00,VWS V14.00,2013-02-25 18:14:00,
2013-02-25 13:20:00,41.7,20.3,29.71,North,0,0.0,0.0,42,0.00,,---,0.00,VWS V14.00,2013-02-25 18:20:00,
2013-02-25 13:25:00,42.1,21.2,29.71,North,0,0.0,0.0,43,0.00,,---,0.00,VWS V14.00,2013-02-25 18:25:00,
2013-02-25 13:30:00,41.9,19.9,29.71,North,0,0.0,0.0,41,0.00,,---,0.00,VWS V14.00,2013-02-25 18:30:00,
2013-02-25 13:35:00,41.5,19.6,29.71,North,0,0.0,0.0,41,0.00,,---,0.00,VWS V14.00,2013-02-25 18:35:00,
2013-02-25 13:40:00,42.1,20.7,29.71,North,0,0.0,0.0,42,0.00,,---,0.00,VWS V14.00,2013-02-25 18:40:00,
2013-02-25 13:46:00,42.3,19.7,29.71,North,0,0.0,0.0,40,0.00,,---,0.00,VWS V14.00,2013-02-25 18:46:00,
2013-02-25 13:51:00,42.3,20.3,29.71,North,0,0.0,0.0,41,0.00,,---,0.00,VWS V14.00,2013-02-25 18:51:00,
2013-02-25 13:57:00,43.0,20.9,29.71,North,0,0.0,0.0,41,0.00,,---,0.00,VWS V14.00,2013-02-25 18:57:00,
2013-02-25 14:02:00,43.0,20.3,29.71,North,0,0.0,0.0,40,0.00,,---,0.00,VWS V14.00,2013-02-25 19:02:00,
2013-02-25 14:08:00,42.8,19.6,29.71,North,0,0.0,0.0,39,0.00,,---,0.00,VWS V14.00,2013-02-25 19:08:00,
2013-02-25 14:13:00,42.6,19.4,29.71,North,0,0.0,0.0,39,0.00,,---,0.00,VWS V14.00,2013-02-25 19:13:00,
2013-02-25 14:18:00,42.3,19.1,29.71,North,0,0.0,0.0,39,0.00,,---,0.00,VWS V14.00,2013-02-25 19:18:00,
2013-02-25 14:23:00,42.1,19.5,29.71,North,0,0.0,0.0,40,0.00,,---,0.00,VWS V14.00,2013-02-25 19:23:00,
2013-02-25 14:28:00,42.3,19.7,29.71,North,0,0.0,0.0,40,0.00,,---,0.00,VWS V14.00,2013-02-25 19:28:00,
2013-02-25 14:34:00,42.4,19.8,29.71,North,0,0.0,0.0,40,0.00,,---,0.00,VWS V14.00,2013-02-25 19:34:00,
2013-02-25 14:39:00,42.1,19.5,29.71,North,0,0.0,0.0,40,0.00,,---,0.00,VWS V14.00,2013-02-25 19:39:00,
2013-02-25 14:44:00,41.4,18.9,29.71,North,0,0.0,0.0,40,0.00,,---,0.00,VWS V14.00,2013-02-25 19:44:00,
2013-02-25 14:49:00,41.0,18.5,29.71,North,0,0.0,0.0,40,0.00,,---,0.00,VWS V14.00,2013-02-25 19:49:00,
2013-02-25 14:55:00,40.8,19.0,29.71,North,0,0.0,0.0,41,0.00,,---,0.00,VWS V14.00,2013-02-25 19:55:00,
2013-02-25 15:00:00,40.8,19.0,29.71,North,0,0.0,0.0,41,0.00,,---,0.00,VWS V14.00,2013-02-25 20:00:00,
2013-02-25 15:05:00,40.8,19.5,29.71,North,0,0.0,0.0,42,0.00,,---,0.00,VWS V14.00,2013-02-25 20:05:00,
2013-02-25 15:11:00,40.3,19.0,29.71,North,0,0.0,0.0,42,0.00,,---,0.00,VWS V14.00,2013-02-25 20:11:00,
2013-02-25 15:17:00,39.7,19.1,29.74,North,0,0.0,0.0,43,0.00,,---,0.00,VWS V14.00,2013-02-25 20:17:00,
2013-02-25 15:22:00,39.6,18.9,29.74,North,0,0.0,0.0,43,0.00,,---,0.00,VWS V14.00,2013-02-25 20:22:00,
2013-02-25 15:27:00,39.6,19.5,29.74,North,0,0.0,0.0,44,0.00,,---,0.00,VWS V14.00,2013-02-25 20:27:00,
2013-02-25 15:32:00,39.4,19.3,29.74,North,0,0.0,0.0,44,0.00,,---,0.00,VWS V14.00,2013-02-25 20:32:00,
2013-02-25 15:37:00,39.0,19.0,29.74,North,0,0.0,0.0,44,0.00,,---,0.00,VWS V14.00,2013-02-25 20:37:00,
2013-02-25 15:43:00,38.8,19.8,29.74,North,0,0.0,0.0,46,0.00,,---,0.00,VWS V14.00,2013-02-25 20:43:00,
2013-02-25 15:48:00,38.7,20.2,29.74,North,0,0.0,0.0,47,0.00,,---,0.00,VWS V14.00,2013-02-25 20:48:00,
2013-02-25 15:53:00,38.3,20.4,29.74,North,0,0.0,0.0,48,0.00,,---,0.00,VWS V14.00,2013-02-25 20:53:00,
2013-02-25 15:58:00,37.9,20.0,29.74,North,0,0.0,0.0,48,0.00,,---,0.00,VWS V14.00,2013-02-25 20:58:00,
2013-02-25 16:03:00,37.6,20.2,29.74,North,0,0.0,0.0,49,0.00,,---,0.00,VWS V14.00,2013-02-25 21:03:00,
2013-02-25 16:09:00,37.2,20.8,29.74,North,0,0.0,0.0,51,0.00,,---,0.00,VWS V14.00,2013-02-25 21:09:00,
2013-02-25 16:14:00,37.0,20.6,29.74,North,0,0.0,0.0,51,0.00,,---,0.00,VWS V14.00,2013-02-25 21:14:00,
2013-02-25 16:19:00,36.9,20.9,29.74,North,0,0.0,0.0,52,0.00,,---,0.00,VWS V14.00,2013-02-25 21:19:00,
2013-02-25 16:25:00,36.7,20.7,29.74,North,0,0.0,0.0,52,0.00,,---,0.00,VWS V14.00,2013-02-25 21:25:00,
2013-02-25 16:30:00,36.5,21.0,29.74,North,0,0.0,0.0,53,0.00,,---,0.00,VWS V14.00,2013-02-25 21:30:00,
2013-02-25 16:35:00,36.3,21.3,29.74,North,0,0.0,0.0,54,0.00,,---,0.00,VWS V14.00,2013-02-25 21:35:00,
2013-02-25 16:40:00,36.1,21.5,29.74,North,0,0.0,0.0,55,0.00,,---,0.00,VWS V14.00,2013-02-25 21:40:00,
2013-02-25 16:46:00,36.0,21.0,29.74,North,0,0.0,0.0,54,0.00,,---,0.00,VWS V14.00,2013-02-25 21:46:00,
2013-02-25 16:52:00,35.8,21.2,29.74,North,0,0.0,0.0,55,0.00,,---,0.00,VWS V14.00,2013-02-25 21:52:00,
2013-02-25 16:57:00,35.8,21.2,29.74,North,0,0.0,0.0,55,0.00,,---,0.00,VWS V14.00,2013-02-25 21:57:00,
2013-02-25 17:02:00,35.8,21.2,29.74,North,0,0.0,0.0,55,0.00,,---,0.00,VWS V14.00,2013-02-25 22:02:00,
2013-02-25 17:07:00,35.6,21.5,29.74,North,0,0.0,0.0,56,0.00,,---,0.00,VWS V14.00,2013-02-25 22:07:00,
2013-02-25 17:12:00,35.4,22.1,29.74,North,0,0.0,0.0,58,0.00,,---,0.00,VWS V14.00,2013-02-25 22:12:00,
2013-02-25 17:18:00,35.2,21.5,29.74,North,0,0.0,0.0,57,0.00,,---,0.00,VWS V14.00,2013-02-25 22:18:00,
2013-02-25 17:23:00,35.1,21.8,29.74,North,0,0.0,0.0,58,0.00,,---,0.00,VWS V14.00,2013-02-25 22:23:00,
2013-02-25 17:28:00,35.1,21.4,29.74,North,0,0.0,0.0,57,0.00,,---,0.00,VWS V14.00,2013-02-25 22:28:00,
2013-02-25 17:33:00,34.9,21.6,29.74,North,0,0.0,0.0,58,0.00,,---,0.00,VWS V14.00,2013-02-25 22:33:00,
2013-02-25 17:39:00,34.9,21.6,29.74,North,0,0.0,0.0,58,0.00,,---,0.00,VWS V14.00,2013-02-25 22:39:00,
2013-02-25 17:44:00,34.7,21.5,29.74,North,0,0.0,0.0,58,0.00,,---,0.00,VWS V14.00,2013-02-25 22:44:00,
2013-02-25 17:49:00,34.5,21.7,29.77,North,0,0.0,0.0,59,0.00,,---,0.00,VWS V14.00,2013-02-25 22:49:00,
2013-02-25 17:54:00,34.5,21.7,29.77,North,0,0.0,0.0,59,0.00,,---,0.00,VWS V14.00,2013-02-25 22:54:00,
2013-02-25 18:00:00,34.5,21.7,29.77,North,0,0.0,0.0,59,0.00,,---,0.00,VWS V14.00,2013-02-25 23:00:00,
2013-02-25 18:05:00,34.3,21.5,29.74,North,0,0.0,0.0,59,0.00,,---,0.00,VWS V14.00,2013-02-25 23:05:00,
2013-02-25 18:10:00,34.3,21.9,29.74,North,0,0.0,0.0,60,0.00,,---,0.00,VWS V14.00,2013-02-25 23:10:00,
2013-02-25 18:16:00,34.3,22.7,29.74,North,0,0.0,0.0,62,0.00,,---,0.00,VWS V14.00,2013-02-25 23:16:00,
2013-02-25 18:21:00,34.3,22.7,29.77,North,0,0.0,0.0,62,0.00,,---,0.00,VWS V14.00,2013-02-25 23:21:00,
2013-02-25 18:27:00,34.2,22.5,29.77,North,0,0.0,0.0,62,0.00,,---,0.00,VWS V14.00,2013-02-25 23:27:00,
2013-02-25 18:32:00,34.2,22.9,29.77,North,0,0.0,0.0,63,0.00,,---,0.00,VWS V14.00,2013-02-25 23:32:00,
2013-02-25 18:37:00,34.0,22.7,29.77,North,0,0.0,0.0,63,0.00,,---,0.00,VWS V14.00,2013-02-25 23:37:00,
2013-02-25 18:42:00,34.0,22.7,29.77,North,0,0.0,0.0,63,0.00,,---,0.00,VWS V14.00,2013-02-25 23:42:00,
2013-02-25 18:47:00,34.0,23.1,29.77,North,0,0.0,0.0,64,0.00,,---,0.00,VWS V14.00,2013-02-25 23:47:00,
2013-02-25 18:53:00,34.0,23.1,29.77,North,0,0.0,0.0,64,0.00,,---,0.00,VWS V14.00,2013-02-25 23:53:00,
2013-02-25 18:58:00,34.0,23.1,29.77,North,0,0.0,0.0,64,0.00,,---,0.00,VWS V14.00,2013-02-25 23:58:00,
2013-02-25 19:03:00,34.0,23.1,29.77,North,0,0.0,0.0,64,0.00,,---,0.00,VWS V14.00,2013-02-26 00:03:00,
2013-02-25 19:08:00,33.8,22.9,29.77,North,0,0.0,0.0,64,0.00,,---,0.00,VWS V14.00,2013-02-26 00:08:00,
2013-02-25 19:13:00,33.8,23.3,29.77,North,0,0.0,0.0,65,0.00,,---,0.00,VWS V14.00,2013-02-26 00:13:00,
2013-02-25 19:18:00,33.8,23.3,29.77,North,0,0.0,0.0,65,0.00,,---,0.00,VWS V14.00,2013-02-26 00:18:00,
2013-02-25 19:24:00,33.8,23.3,29.77,North,0,0.0,0.0,65,0.00,,---,0.00,VWS V14.00,2013-02-26 00:24:00,
2013-02-25 19:29:00,33.6,23.5,29.77,North,0,0.0,0.0,66,0.00,,---,0.00,VWS V14.00,2013-02-26 00:29:00,
2013-02-25 19:34:00,33.6,23.5,29.80,North,0,0.0,0.0,66,0.00,,---,0.00,VWS V14.00,2013-02-26 00:34:00,
2013-02-25 19:39:00,33.6,23.5,29.80,North,0,0.0,0.0,66,0.00,,---,0.00,VWS V14.00,2013-02-26 00:39:00,
2013-02-25 19:44:00,33.6,23.9,29.80,North,0,0.0,0.0,67,0.00,,---,0.00,VWS V14.00,2013-02-26 00:44:00,
2013-02-25 19:50:00,33.6,23.9,29.80,North,0,0.0,0.0,67,0.00,,---,0.00,VWS V14.00,2013-02-26 00:50:00,
2013-02-25 19:55:00,33.6,23.9,29.80,North,0,0.0,0.0,67,0.00,,---,0.00,VWS V14.00,2013-02-26 00:55:00,
2013-02-25 20:00:00,33.6,23.9,29.80,North,0,0.0,0.0,67,0.00,,---,0.00,VWS V14.00,2013-02-26 01:00:00,
2013-02-25 20:05:00,33.6,23.9,29.80,North,0,0.0,0.0,67,0.00,,---,0.00,VWS V14.00,2013-02-26 01:05:00,
2013-02-25 20:10:00,33.4,23.7,29.80,North,0,0.0,0.0,67,0.00,,---,0.00,VWS V14.00,2013-02-26 01:10:00,
2013-02-25 20:16:00,33.4,24.0,29.80,North,0,0.0,0.0,68,0.00,,---,0.00,VWS V14.00,2013-02-26 01:16:00,
2013-02-25 20:22:00,33.4,24.0,29.80,North,0,0.0,0.0,68,0.00,,---,0.00,VWS V14.00,2013-02-26 01:22:00,
2013-02-25 20:27:00,33.4,24.0,29.80,North,0,0.0,0.0,68,0.00,,---,0.00,VWS V14.00,2013-02-26 01:27:00,
2013-02-25 20:32:00,33.3,23.9,29.80,North,0,0.0,0.0,68,0.00,,---,0.00,VWS V14.00,2013-02-26 01:32:00,
2013-02-25 20:38:00,33.3,23.9,29.80,North,0,0.0,0.0,68,0.00,,---,0.00,VWS V14.00,2013-02-26 01:38:00,
2013-02-25 20:43:00,33.3,24.2,29.80,North,0,0.0,0.0,69,0.00,,---,0.00,VWS V14.00,2013-02-26 01:43:00,
2013-02-25 20:48:00,33.3,24.2,29.80,North,0,0.0,0.0,69,0.00,,---,0.00,VWS V14.00,2013-02-26 01:48:00,
2013-02-25 20:53:00,33.3,24.2,29.80,North,0,0.0,0.0,69,0.00,,---,0.00,VWS V14.00,2013-02-26 01:53:00,
2013-02-25 20:59:00,33.3,24.2,29.80,North,0,0.0,0.0,69,0.00,,---,0.00,VWS V14.00,2013-02-26 01:59:00,
2013-02-25 21:05:00,33.1,24.0,29.80,North,0,0.0,0.0,69,0.00,,---,0.00,VWS V14.00,2013-02-26 02:05:00,
2013-02-25 21:10:00,33.3,24.5,29.80,North,0,0.0,0.0,70,0.00,,---,0.00,VWS V14.00,2013-02-26 02:10:00,
2013-02-25 21:15:00,33.3,24.5,29.80,North,0,0.0,0.0,70,0.00,,---,0.00,VWS V14.00,2013-02-26 02:15:00,
2013-02-25 21:20:00,33.1,24.4,29.80,North,0,0.0,0.0,70,0.00,,---,0.00,VWS V14.00,2013-02-26 02:20:00,
2013-02-25 21:26:00,33.1,24.4,29.80,North,0,0.0,0.0,70,0.00,,---,0.00,VWS V14.00,2013-02-26 02:26:00,
2013-02-25 21:31:00,33.1,24.4,29.80,North,0,0.0,0.0,70,0.00,,---,0.00,VWS V14.00,2013-02-26 02:31:00,
2013-02-25 21:36:00,32.9,24.2,29.80,North,0,0.0,0.0,70,0.00,,---,0.00,VWS V14.00,2013-02-26 02:36:00,
2013-02-25 21:41:00,32.7,24.0,29.80,North,0,0.0,0.0,70,0.00,,---,0.00,VWS V14.00,2013-02-26 02:41:00,
2013-02-25 21:47:00,32.5,23.9,29.80,North,0,0.0,0.0,70,0.00,,---,0.00,VWS V14.00,2013-02-26 02:47:00,
2013-02-25 21:53:00,32.4,23.7,29.80,North,0,0.0,0.0,70,0.00,,---,0.00,VWS V14.00,2013-02-26 02:53:00,
2013-02-25 21:58:00,32.2,23.5,29.80,North,0,0.0,0.0,70,0.00,,---,0.00,VWS V14.00,2013-02-26 02:58:00,
2013-02-25 22:03:00,32.2,23.9,29.80,North,0,0.0,0.0,71,0.00,,---,0.00,VWS V14.00,2013-02-26 03:03:00,
2013-02-25 22:10:00,32.4,24.0,29.80,North,0,0.0,0.0,71,0.00,,---,0.00,VWS V14.00,2013-02-26 03:10:00,
2013-02-25 22:15:00,32.4,24.0,29.80,North,0,0.0,0.0,71,0.00,,---,0.00,VWS V14.00,2013-02-26 03:15:00,
2013-02-25 22:20:00,32.4,24.4,29.80,North,0,0.0,0.0,72,0.00,,---,0.00,VWS V14.00,2013-02-26 03:20:00,
2013-02-25 22:26:00,32.5,24.5,29.80,North,0,0.0,0.0,72,0.00,,---,0.00,VWS V14.00,2013-02-26 03:26:00,
2013-02-25 22:31:00,32.5,24.5,29.80,North,0,0.0,0.0,72,0.00,,---,0.00,VWS V14.00,2013-02-26 03:31:00,
2013-02-25 22:36:00,32.5,24.5,29.80,North,0,0.0,0.0,72,0.00,,---,0.00,VWS V14.00,2013-02-26 03:36:00,
2013-02-25 22:41:00,32.5,24.9,29.80,North,0,0.0,0.0,73,0.00,,---,0.00,VWS V14.00,2013-02-26 03:41:00,
2013-02-25 22:46:00,32.5,24.9,29.80,North,0,0.0,0.0,73,0.00,,---,0.00,VWS V14.00,2013-02-26 03:46:00,
2013-02-25 22:51:00,32.5,24.9,29.80,North,0,0.0,0.0,73,0.00,,---,0.00,VWS V14.00,2013-02-26 03:51:00,
2013-02-25 22:57:00,32.5,24.9,29.80,North,0,0.0,0.0,73,0.00,,---,0.00,VWS V14.00,2013-02-26 03:57:00,
2013-02-25 23:02:00,32.5,24.9,29.80,North,0,0.0,0.0,73,0.00,,---,0.00,VWS V14.00,2013-02-26 04:02:00,
2013-02-25 23:07:00,32.5,24.9,29.80,North,0,0.0,0.0,73,0.00,,---,0.00,VWS V14.00,2013-02-26 04:07:00,
2013-02-25 23:12:00,32.5,24.9,29.80,North,0,0.0,0.0,73,0.00,,---,0.00,VWS V14.00,2013-02-26 04:12:00,
2013-02-25 23:17:00,32.5,25.2,29.80,North,0,0.0,0.0,74,0.00,,---,0.00,VWS V14.00,2013-02-26 04:17:00,
2013-02-25 23:24:00,32.5,25.2,29.80,North,0,0.0,0.0,74,0.00,,---,0.00,VWS V14.00,2013-02-26 04:24:00,
2013-02-25 23:29:00,32.5,25.2,29.80,North,0,0.0,0.0,74,0.00,,---,0.00,VWS V14.00,2013-02-26 04:29:00,
2013-02-25 23:35:00,32.5,25.2,29.83,North,0,0.0,0.0,74,0.00,,---,0.00,VWS V14.00,2013-02-26 04:35:00,
2013-02-25 23:40:00,32.5,25.2,29.83,North,0,0.0,0.0,74,0.00,,---,0.00,VWS V14.00,2013-02-26 04:40:00,
2013-02-25 23:45:00,32.5,25.2,29.83,North,0,0.0,0.0,74,0.00,,---,0.00,VWS V14.00,2013-02-26 04:45:00,
2013-02-25 23:50:00,32.5,25.2,29.83,North,0,0.0,0.0,74,0.00,,---,0.00,VWS V14.00,2013-02-26 04:50:00,
2013-02-25 23:55:00,32.5,25.5,29.83,North,0,0.0,0.0,75,0.00,,---,0.00,VWS V14.00,2013-02-26 04:55:00,